Time;durP1;ratioP1;P1;durP2;ratioP2;P2;SDS_P1;SDS_P2;PMS_P1;PMS_P2;Temp;Humidity;BMP_temperature;BMP_pressure;BME280_temperature;BME280_humidity;BME280_pressure;Samples;Min_cycle;Max_cycle;Signal;HPM_P1;HPM_P2
2023/08/22 00:00:17;;;;;;;;;;;;;;;15.91;75.50;101783.20;108679;1263;74828;-80
2023/08/22 00:03:03;;;;;;;;;;;;;;;15.90;75.50;101775.77;108569;1263;125154;-80
2023/08/22 00:05:30;;;;;;;;;;;;;;;15.89;75.54;101775.20;108626;1263;71207;-80
2023/08/22 00:07:56;;;;;;;;;;;;;;;15.87;75.67;101774.98;108557;1263;126721;-80
2023/08/22 00:10:23;;;;;;;;;;;;;;;15.85;75.69;101771.95;108664;1263;59189;-80
2023/08/22 00:12:49;;;;;;;;;;;;;;;15.84;75.79;101773.14;108663;1266;59021;-80
2023/08/22 00:15:16;;;;;;;;;;;;;;;15.83;75.86;101773.31;108565;1264;125885;-81
2023/08/22 00:17:42;;;;;;;;;;;;;;;15.82;75.94;101769.75;108652;1264;59077;-81
2023/08/22 00:20:11;;;;;;;;;;;;;;;15.80;76.05;101765.64;108496;1262;125589;-81
2023/08/22 00:22:37;;;;;;;;;;;;;;;15.79;76.04;101759.95;108665;1264;60163;-81
2023/08/22 00:25:04;;;;;;;;;;;;;;;15.77;76.11;101762.21;108563;1263;59685;-80
2023/08/22 00:27:31;;;;;;;;;;;;;;;15.74;76.13;101760.58;108590;1263;124821;-81
2023/08/22 00:29:57;;;;;;;;;;;;;;;15.73;76.20;101753.10;108632;1263;71433;-81
2023/08/22 00:32:24;;;;;;;;;;;;;;;15.70;76.29;101753.02;108461;1263;125357;-80
2023/08/22 00:34:50;;;;;;;;;;;;;;;15.68;76.32;101753.00;108549;1266;59874;-81
2023/08/22 00:37:17;;;;;;;;;;;;;;;15.66;76.46;101753.48;108665;1264;59449;-81
2023/08/22 00:39:44;;;;;;;;;;;;;;;15.65;76.62;101756.98;108445;1269;125222;-80
2023/08/22 00:42:10;;;;;;;;;;;;;;;15.64;76.65;101757.85;108582;1264;71516;-81
2023/08/22 00:44:37;;;;;;;;;;;;;;;15.61;76.77;101758.34;108494;1263;125128;-81
2023/08/22 00:47:04;;;;;;;;;;;;;;;15.59;76.81;101758.29;108645;1263;59087;-81
2023/08/22 00:49:30;;;;;;;;;;;;;;;15.57;76.95;101761.97;108638;1263;74732;-81
2023/08/22 00:51:57;;;;;;;;;;;;;;;15.55;77.10;101761.22;108563;1263;126513;-80
2023/08/22 00:54:27;;;;;;;;;;;;;;;15.55;77.15;101762.27;108647;1264;71545;-80
2023/08/22 00:56:54;;;;;;;;;;;;;;;15.54;77.29;101758.70;108427;1263;125261;-80
2023/08/22 00:59:20;;;;;;;;;;;;;;;15.53;77.34;101759.58;108584;1264;60207;-80
2023/08/22 01:01:47;;;;;;;;;;;;;;;15.51;77.47;101761.31;108569;1263;59710;-81
2023/08/22 01:04:13;;;;;;;;;;;;;;;15.50;77.48;101763.06;108356;1263;125944;-80
2023/08/22 01:06:53;;;;;;;;;;;;;;;15.48;77.51;101765.48;108663;1263;59295;-80
2023/08/22 01:09:23;;;;;;;;;;;;;;;15.48;77.81;101769.91;108435;1264;126810;-80
2023/08/22 01:11:49;;;;;;;;;;;;;;;15.48;77.79;101770.98;108640;1263;60734;-80
2023/08/22 01:14:17;;;;;;;;;;;;;;;15.46;77.78;101769.34;108401;1263;125114;-80
2023/08/22 01:16:44;;;;;;;;;;;;;;;15.45;77.96;101771.27;108609;1264;66071;-80
2023/08/22 01:19:10;;;;;;;;;;;;;;;15.44;78.01;101774.08;108596;1264;59052;-80
2023/08/22 01:21:50;;;;;;;;;;;;;;;15.44;78.14;101768.77;108463;1263;125032;-80
2023/08/22 01:24:17;;;;;;;;;;;;;;;15.43;78.23;101767.86;108645;1263;59230;-80
2023/08/22 01:26:44;;;;;;;;;;;;;;;15.44;78.32;101765.41;108554;1263;125677;-80
2023/08/22 01:29:11;;;;;;;;;;;;;;;15.45;78.45;101763.14;108537;1264;65241;-80
2023/08/22 01:32:00;;;;;;;;;;;;;;;15.44;78.40;101762.05;108530;1263;71405;-80
2023/08/22 01:34:28;;;;;;;;;;;;;;;15.43;78.58;101762.90;108396;1264;59634;-80
2023/08/22 01:36:55;;;;;;;;;;;;;;;15.42;78.67;101768.36;108581;1263;60072;-80
2023/08/22 01:39:22;;;;;;;;;;;;;;;15.41;78.66;101765.88;108453;1263;125301;-80
2023/08/22 01:41:48;;;;;;;;;;;;;;;15.41;78.82;101763.74;108571;1263;64650;-80
2023/08/22 01:44:15;;;;;;;;;;;;;;;15.40;78.80;101768.15;108538;1263;125539;-79
2023/08/22 01:46:41;;;;;;;;;;;;;;;15.40;78.83;101775.23;108652;1263;59479;-80
2023/08/22 01:49:08;;;;;;;;;;;;;;;15.39;78.90;101778.92;108654;1264;59045;-81
2023/08/22 01:51:34;;;;;;;;;;;;;;;15.38;78.92;101788.45;108576;1263;125857;-81
2023/08/22 01:54:01;;;;;;;;;;;;;;;15.36;78.94;101783.46;108641;1264;59305;-81
2023/08/22 01:56:27;;;;;;;;;;;;;;;15.35;79.06;101784.50;108467;1263;125564;-81
2023/08/22 01:58:54;;;;;;;;;;;;;;;15.34;79.17;101788.20;108644;1263;58940;-81
2023/08/22 02:01:22;;;;;;;;;;;;;;;15.33;79.15;101783.92;108655;1263;59323;-81
2023/08/22 02:03:48;;;;;;;;;;;;;;;15.31;79.26;101779.29;108595;1263;125582;-81
2023/08/22 02:06:15;;;;;;;;;;;;;;;15.30;79.28;101780.30;108652;1263;64257;-81
2023/08/22 02:08:41;;;;;;;;;;;;;;;15.28;79.26;101781.33;108552;1263;124988;-82
2023/08/22 02:11:08;;;;;;;;;;;;;;;15.25;79.21;101779.67;108603;1263;58981;-81
2023/08/22 02:13:34;;;;;;;;;;;;;;;15.22;79.29;101783.14;108673;1263;60137;-81
2023/08/22 02:16:01;;;;;;;;;;;;;;;15.19;79.50;101783.08;108439;1264;126139;-81
2023/08/22 02:18:27;;;;;;;;;;;;;;;15.19;79.58;101786.08;108666;1263;59351;-81
2023/08/22 02:20:54;;;;;;;;;;;;;;;15.19;79.72;101781.84;108560;1263;125955;-82
2023/08/22 02:23:21;;;;;;;;;;;;;;;15.20;79.76;101777.43;108562;1264;59072;-81
2023/08/22 02:25:47;;;;;;;;;;;;;;;15.19;79.88;101769.64;108644;1263;59436;-81
2023/08/22 02:28:14;;;;;;;;;;;;;;;15.18;79.98;101769.61;108458;1263;124847;-81
2023/08/22 02:30:40;;;;;;;;;;;;;;;15.18;80.05;101765.90;108645;1264;66336;-81
2023/08/22 02:33:07;;;;;;;;;;;;;;;15.18;80.18;101762.71;108517;1264;124960;-81
2023/08/22 02:35:34;;;;;;;;;;;;;;;15.18;80.27;101762.89;108636;1264;59098;-81
2023/08/22 02:38:00;;;;;;;;;;;;;;;15.17;80.34;101757.92;108561;1263;125145;-81
2023/08/22 02:40:27;;;;;;;;;;;;;;;15.16;80.31;101760.23;108680;1262;59649;-81
2023/08/22 02:42:53;;;;;;;;;;;;;;;15.15;80.43;101758.05;108713;1262;58981;-81
2023/08/22 02:45:19;;;;;;;;;;;;;;;15.15;80.45;101754.89;108544;1264;125933;-82
2023/08/22 02:47:46;;;;;;;;;;;;;;;15.15;80.63;101755.58;108513;1262;59356;-79
2023/08/22 02:50:12;;;;;;;;;;;;;;;15.15;80.69;101752.41;108548;1264;125303;-81
2023/08/22 02:52:39;;;;;;;;;;;;;;;15.15;80.80;101748.86;108606;1263;59361;-81
2023/08/22 02:55:06;;;;;;;;;;;;;;;15.14;80.90;101746.89;108569;1264;59017;-81
2023/08/22 02:57:33;;;;;;;;;;;;;;;15.13;80.95;101749.18;108550;1263;125190;-81
2023/08/22 02:59:59;;;;;;;;;;;;;;;15.12;80.99;101749.33;108579;1263;59052;-82
2023/08/22 03:02:26;;;;;;;;;;;;;;;15.11;80.99;101746.31;108553;1263;125123;-81
2023/08/22 03:04:53;;;;;;;;;;;;;;;15.11;81.06;101737.48;108557;1264;74906;-82
2023/08/22 03:07:19;;;;;;;;;;;;;;;15.10;81.19;101734.63;108560;1264;59133;-82
2023/08/22 03:09:46;;;;;;;;;;;;;;;15.09;81.23;101731.41;108576;1264;125111;-81
2023/08/22 03:12:12;;;;;;;;;;;;;;;15.10;81.53;101736.91;108639;1263;59138;-81
2023/08/22 03:14:39;;;;;;;;;;;;;;;15.11;81.62;101731.64;108471;1264;125661;-80
2023/08/22 03:17:05;;;;;;;;;;;;;;;15.12;81.71;101726.88;108638;1264;59485;-80
2023/08/22 03:19:32;;;;;;;;;;;;;;;15.13;81.71;101727.96;108558;1263;59059;-81
2023/08/22 03:21:58;;;;;;;;;;;;;;;15.13;81.88;101735.92;108532;1264;125003;-80
2023/08/22 03:24:25;;;;;;;;;;;;;;;15.14;81.98;101736.11;108565;1263;59616;-80
2023/08/22 03:26:51;;;;;;;;;;;;;;;15.15;82.05;101730.30;108469;1263;125540;-80
2023/08/22 03:29:18;;;;;;;;;;;;;;;15.16;82.05;101738.10;108669;1263;74787;-80
2023/08/22 03:31:44;;;;;;;;;;;;;;;15.16;82.17;101737.94;108573;1263;59070;-81
2023/08/22 03:34:11;;;;;;;;;;;;;;;15.16;82.14;101738.30;108549;1263;125028;-81
2023/08/22 03:36:37;;;;;;;;;;;;;;;15.18;82.15;101742.21;108586;1263;59046;-80
2023/08/22 03:39:04;;;;;;;;;;;;;;;15.19;82.35;101742.95;108552;1263;125038;-81
2023/08/22 03:41:30;;;;;;;;;;;;;;;15.21;82.34;101732.17;108568;1264;59133;-81
2023/08/22 03:43:56;;;;;;;;;;;;;;;15.22;82.42;101732.77;108564;1263;58962;-81
2023/08/22 03:46:23;;;;;;;;;;;;;;;15.26;82.57;101737.63;108642;1264;71369;-81
2023/08/22 03:48:50;;;;;;;;;;;;;;;15.30;82.52;101730.62;108582;1264;59067;-80
2023/08/22 03:51:16;;;;;;;;;;;;;;;15.33;82.50;101715.30;108432;1269;125446;-80
2023/08/22 03:53:43;;;;;;;;;;;;;;;15.37;82.40;101712.03;108582;1263;59105;-80
2023/08/22 03:56:09;;;;;;;;;;;;;;;15.43;82.60;101723.45;108535;1264;125445;-82
2023/08/22 03:58:36;;;;;;;;;;;;;;;15.62;83.31;101727.75;108650;1263;59241;-81
2023/08/22 04:01:03;;;;;;;;;;;;;;;16.03;83.98;101723.77;108666;1263;59011;-82
2023/08/22 04:03:29;;;;;;;;;;;;;;;16.53;83.85;101727.27;108566;1263;125003;-79
2023/08/22 04:05:58;;;;;;;;;;;;;;;16.99;83.33;101723.75;108630;1264;74734;-79
2023/08/22 04:08:25;;;;;;;;;;;;;;;17.41;82.60;101728.39;108474;1264;126140;-79
2023/08/22 04:10:51;;;;;;;;;;;;;;;17.72;81.67;101727.51;108481;1265;72765;-81
2023/08/22 04:13:18;;;;;;;;;;;;;;;17.85;80.37;101729.10;108603;1263;59611;-80
2023/08/22 04:15:44;;;;;;;;;;;;;;;17.66;79.10;101728.52;108544;1263;124895;-80
2023/08/22 04:18:11;;;;;;;;;;;;;;;17.54;79.24;101732.27;108665;1264;59729;-80
2023/08/22 04:20:38;;;;;;;;;;;;;;;17.82;80.23;101735.79;108521;1265;125086;-79
2023/08/22 04:23:04;;;;;;;;;;;;;;;18.22;79.89;101728.40;108643;1263;59108;-80
2023/08/22 04:25:31;;;;;;;;;;;;;;;18.94;80.45;101726.99;108610;1263;59579;-80
2023/08/22 04:27:57;;;;;;;;;;;;;;;19.86;79.83;101721.17;108570;1263;124994;-80
2023/08/22 04:30:23;;;;;;;;;;;;;;;20.80;78.83;101723.73;108636;1263;73358;-79
2023/08/22 04:32:50;;;;;;;;;;;;;;;21.75;77.40;101723.04;108568;1264;124912;-79
2023/08/22 04:35:17;;;;;;;;;;;;;;;22.64;76.04;101724.73;108630;1263;59316;-79
2023/08/22 04:37:43;;;;;;;;;;;;;;;23.43;74.20;101721.02;108643;1264;59116;-79
2023/08/22 04:40:10;;;;;;;;;;;;;;;24.16;72.55;101720.16;108428;1264;125426;-79
2023/08/22 04:42:37;;;;;;;;;;;;;;;24.83;71.10;101717.96;108593;1264;74879;-79
2023/08/22 04:45:03;;;;;;;;;;;;;;;25.35;69.26;101726.47;108565;1263;124267;-81
2023/08/22 04:47:30;;;;;;;;;;;;;;;25.88;68.21;101727.30;108549;1263;71404;-82
2023/08/22 04:49:57;;;;;;;;;;;;;;;26.47;67.10;101725.89;108671;1263;58996;-82
2023/08/22 04:52:24;;;;;;;;;;;;;;;27.01;65.69;101734.55;108666;1263;59066;-82
2023/08/22 04:54:50;;;;;;;;;;;;;;;27.58;64.57;101732.36;108553;1265;59365;-82
2023/08/22 04:57:20;;;;;;;;;;;;;;;28.19;63.31;101732.45;108442;1269;124333;-81
2023/08/22 04:59:47;;;;;;;;;;;;;;;28.74;61.92;101737.48;108669;1264;72728;-82
2023/08/22 05:02:13;;;;;;;;;;;;;;;29.17;60.67;101742.42;108563;1263;124679;-82
2023/08/22 05:04:49;;;;;;;;;;;;;;;29.57;59.41;101742.04;108764;1263;59062;-94
2023/08/22 05:07:26;;;;;;;;;;;;;;;30.14;58.45;101751.38;108954;1263;65905;-95
2023/08/22 05:10:07;;;;;;;;;;;;;;;30.55;56.74;101752.22;108341;1267;123221;-82
2023/08/22 05:12:33;;;;;;;;;;;;;;;30.30;55.34;101747.80;108323;1267;64153;-83
2023/08/22 05:15:00;;;;;;;;;;;;;;;30.40;55.02;101743.96;108174;1267;124256;-82
2023/08/22 05:17:26;;;;;;;;;;;;;;;30.52;54.21;101743.80;108255;1267;59156;-82
2023/08/22 05:19:53;;;;;;;;;;;;;;;30.61;53.59;101744.32;108287;1267;64925;-82
2023/08/22 05:22:19;;;;;;;;;;;;;;;30.40;52.76;101747.38;108090;1267;124320;-82
2023/08/22 05:24:46;;;;;;;;;;;;;;;29.77;52.13;101745.95;108336;1267;62593;-83
2023/08/22 05:27:13;;;;;;;;;;;;;;;28.89;51.64;101746.84;108157;1267;124595;-83
2023/08/22 05:29:40;;;;;;;;;;;;;;;27.96;51.80;101751.05;108119;1267;58991;-83
2023/08/22 05:32:06;;;;;;;;;;;;;;;27.03;52.38;101749.07;108145;1268;124570;-83
2023/08/22 05:34:33;;;;;;;;;;;;;;;26.31;52.93;101749.66;108227;1267;59152;-81
2023/08/22 05:36:59;;;;;;;;;;;;;;;25.66;53.63;101751.52;108207;1270;72587;-85
2023/08/22 05:39:26;;;;;;;;;;;;;;;25.24;54.57;101752.91;108346;1267;124090;-86
2023/08/22 05:41:53;;;;;;;;;;;;;;;24.86;54.86;101748.77;108418;1268;59076;-86
2023/08/22 05:44:19;;;;;;;;;;;;;;;24.48;55.39;101744.77;108294;1269;124679;-86
2023/08/22 05:46:45;;;;;;;;;;;;;;;24.06;55.82;101741.13;108300;1264;66020;-86
2023/08/22 05:49:12;;;;;;;;;;;;;;;23.69;56.46;101738.05;108635;1264;71480;-82
2023/08/22 05:51:39;;;;;;;;;;;;;;;23.31;56.77;101750.00;108512;1265;124209;-80
2023/08/22 05:54:05;;;;;;;;;;;;;;;22.97;57.19;101758.94;108602;1264;59464;-82
2023/08/22 05:56:31;;;;;;;;;;;;;;;22.73;57.97;101748.61;108565;1264;124342;-83
2023/08/22 05:58:58;;;;;;;;;;;;;;;22.65;58.47;101743.15;108624;1264;64997;-82
2023/08/22 06:01:25;;;;;;;;;;;;;;;22.63;58.84;101745.67;108636;1263;71414;-82
2023/08/22 06:03:51;;;;;;;;;;;;;;;22.64;59.16;101754.25;108571;1263;124192;-81
2023/08/22 06:06:18;;;;;;;;;;;;;;;22.68;59.38;101760.48;108560;1263;59142;-82
2023/08/22 06:08:44;;;;;;;;;;;;;;;22.69;59.39;101755.98;108550;1263;124255;-82
2023/08/22 06:11:11;;;;;;;;;;;;;;;22.69;59.59;101749.91;108584;1264;58996;-82
2023/08/22 06:13:37;;;;;;;;;;;;;;;22.67;59.79;101751.00;108527;1264;58993;-82
2023/08/22 06:16:04;;;;;;;;;;;;;;;22.55;59.43;101755.77;108596;1264;124228;-81
2023/08/22 06:18:30;;;;;;;;;;;;;;;22.31;59.47;101754.52;108653;1263;58945;-81
2023/08/22 06:20:57;;;;;;;;;;;;;;;22.07;59.65;101756.27;108553;1264;124497;-82
2023/08/22 06:23:24;;;;;;;;;;;;;;;21.86;59.95;101750.16;108602;1263;65061;-82
2023/08/22 06:25:50;;;;;;;;;;;;;;;21.72;60.42;101744.16;108589;1265;71177;-82
2023/08/22 06:28:17;;;;;;;;;;;;;;;21.65;60.71;101743.30;108478;1263;124069;-82
2023/08/22 06:30:43;;;;;;;;;;;;;;;21.60;60.95;101741.36;108610;1264;60198;-83
2023/08/22 06:33:10;;;;;;;;;;;;;;;21.58;61.25;101738.15;108572;1264;124058;-83
2023/08/22 06:35:36;;;;;;;;;;;;;;;21.56;61.39;101740.13;108583;1265;59052;-80
2023/08/22 06:38:03;;;;;;;;;;;;;;;21.50;61.29;101740.88;108577;1263;123721;-81
2023/08/22 06:40:29;;;;;;;;;;;;;;;21.41;61.37;101735.34;108585;1264;59117;-81
2023/08/22 06:42:56;;;;;;;;;;;;;;;21.36;61.51;101730.19;108712;1264;59135;-82
2023/08/22 06:45:22;;;;;;;;;;;;;;;21.35;61.57;101729.29;108546;1265;124160;-81
2023/08/22 06:47:49;;;;;;;;;;;;;;;21.47;62.20;101723.54;108525;1264;58984;-81
2023/08/22 06:50:15;;;;;;;;;;;;;;;21.75;62.28;101722.88;108548;1264;124685;-82
2023/08/22 06:52:42;;;;;;;;;;;;;;;22.03;61.86;101727.89;108684;1264;59230;-82
2023/08/22 06:55:09;;;;;;;;;;;;;;;22.29;61.63;101735.58;108625;1263;59125;-81
2023/08/22 06:57:35;;;;;;;;;;;;;;;22.56;61.29;101731.97;108584;1263;124124;-81
2023/08/22 07:00:15;;;;;;;;;;;;;;;22.70;60.54;101733.98;108661;1265;64737;-89
2023/08/22 07:02:42;;;;;;;;;;;;;;;22.79;60.30;101736.77;108586;1263;124720;-90
2023/08/22 07:05:09;;;;;;;;;;;;;;;22.91;60.17;101739.14;108502;1264;59099;-90
2023/08/22 07:07:35;;;;;;;;;;;;;;;23.05;60.12;101734.17;108709;1264;58965;-82
2023/08/22 07:10:04;;;;;;;;;;;;;;;23.32;59.89;101729.95;108623;1263;124823;-81
2023/08/22 07:12:30;;;;;;;;;;;;;;;23.58;59.59;101725.83;108695;1264;64454;-80
2023/08/22 07:14:57;;;;;;;;;;;;;;;23.79;59.17;101702.61;108459;1264;124886;-81
2023/08/22 07:17:23;;;;;;;;;;;;;;;23.96;58.90;101655.95;108546;1264;58925;-74
2023/08/22 07:19:50;;;;;;;;;;;;;;;24.08;58.59;101618.98;108670;1264;59129;-74
2023/08/22 07:22:16;;;;;;;;;;;;;;;24.18;57.91;101627.42;108562;1264;124264;-74
2023/08/22 07:24:43;;;;;;;;;;;;;;;24.27;57.65;101639.65;108530;1265;59149;-74
2023/08/22 07:27:09;;;;;;;;;;;;;;;24.36;57.36;101632.67;108402;1264;124249;-81
2023/08/22 07:29:36;;;;;;;;;;;;;;;24.43;57.04;101626.25;108609;1263;59067;-79
2023/08/22 07:32:03;;;;;;;;;;;;;;;24.54;57.01;101624.29;108479;1264;124363;-79
2023/08/22 07:34:29;;;;;;;;;;;;;;;24.55;57.06;101611.71;108506;1264;73932;-79
2023/08/22 07:36:56;;;;;;;;;;;;;;;24.59;56.78;101627.96;108643;1264;59244;-79
2023/08/22 07:39:23;;;;;;;;;;;;;;;24.66;56.65;101644.16;108563;1263;125410;-79
2023/08/22 07:41:49;;;;;;;;;;;;;;;24.69;56.40;101643.02;108615;1263;59269;-79
2023/08/22 07:44:16;;;;;;;;;;;;;;;24.72;55.99;101652.11;108543;1265;124392;-80
2023/08/22 07:46:42;;;;;;;;;;;;;;;24.76;55.76;101665.86;108677;1263;74898;-80
2023/08/22 07:49:09;;;;;;;;;;;;;;;24.84;55.50;101679.52;108556;1264;65704;-79
2023/08/22 07:51:36;;;;;;;;;;;;;;;24.88;54.77;101701.89;108398;1264;124450;-79
2023/08/22 07:54:03;;;;;;;;;;;;;;;24.83;54.64;101722.45;108626;1265;59040;-79
2023/08/22 07:56:29;;;;;;;;;;;;;;;24.90;54.61;101736.31;108546;1263;124488;-79
2023/08/22 07:58:56;;;;;;;;;;;;;;;24.98;54.46;101739.93;108589;1263;74835;-85
2023/08/22 08:01:23;;;;;;;;;;;;;;;25.01;53.99;101723.90;108557;1264;65108;-79
2023/08/22 08:03:50;;;;;;;;;;;;;;;24.94;54.03;101711.66;108525;1264;124204;-80
2023/08/22 08:06:16;;;;;;;;;;;;;;;24.97;54.11;101711.04;108674;1264;59089;-85
2023/08/22 08:08:42;;;;;;;;;;;;;;;25.03;54.05;101705.54;108497;1267;124226;-86
2023/08/22 08:11:09;;;;;;;;;;;;;;;25.12;53.69;101701.60;108711;1263;74720;-79
2023/08/22 08:13:36;;;;;;;;;;;;;;;25.24;53.49;101709.08;108680;1266;66082;-79
2023/08/22 08:16:02;;;;;;;;;;;;;;;25.42;53.20;101720.05;108505;1263;124267;-79
2023/08/22 08:18:29;;;;;;;;;;;;;;;25.58;53.02;101719.34;108501;1268;59002;-79
2023/08/22 08:20:55;;;;;;;;;;;;;;;25.71;52.42;101707.19;108577;1264;124354;-79
2023/08/22 08:23:22;;;;;;;;;;;;;;;25.78;52.03;101690.11;108652;1267;74717;-85
2023/08/22 08:25:48;;;;;;;;;;;;;;;25.87;51.65;101680.94;108700;1264;59438;-91
2023/08/22 08:28:15;;;;;;;;;;;;;;;25.95;51.34;101690.44;108573;1264;124133;-86
2023/08/22 08:30:41;;;;;;;;;;;;;;;26.11;50.76;101701.74;108687;1264;59010;-86
2023/08/22 08:33:09;;;;;;;;;;;;;;;26.14;50.15;101710.52;108478;1264;124610;-85
2023/08/22 08:35:35;;;;;;;;;;;;;;;26.10;50.00;101716.17;108685;1263;74759;-85
2023/08/22 08:38:02;;;;;;;;;;;;;;;26.17;49.68;101716.92;108621;1264;124334;-86
2023/08/22 08:40:31;;;;;;;;;;;;;;;26.25;49.68;101716.01;108699;1264;71901;-88
2023/08/22 08:42:59;;;;;;;;;;;;;;;26.26;49.09;101717.95;108711;1264;58936;-88
2023/08/22 08:45:27;;;;;;;;;;;;;;;26.16;48.90;101728.98;108513;1264;124763;-88
2023/08/22 08:47:54;;;;;;;;;;;;;;;26.10;48.92;101737.23;108730;1265;74868;-87
2023/08/22 08:50:20;;;;;;;;;;;;;;;26.08;48.84;101735.13;108635;1264;124393;-87
2023/08/22 08:52:47;;;;;;;;;;;;;;;26.05;48.59;101729.62;108681;1264;71447;-80
2023/08/22 08:55:14;;;;;;;;;;;;;;;25.86;48.13;101727.15;108686;1263;59061;-88
2023/08/22 08:57:40;;;;;;;;;;;;;;;25.67;48.28;101724.52;108626;1264;124184;-88
2023/08/22 09:00:07;;;;;;;;;;;;;;;25.59;48.39;101715.35;108717;1264;73164;-89
2023/08/22 09:02:34;;;;;;;;;;;;;;;25.54;48.50;101713.66;108660;1264;124517;-88
2023/08/22 09:05:03;;;;;;;;;;;;;;;25.53;48.65;101717.64;108722;1264;72284;-88
2023/08/22 09:07:29;;;;;;;;;;;;;;;25.51;48.47;101719.48;108690;1264;59034;-81
2023/08/22 09:09:57;;;;;;;;;;;;;;;25.45;48.42;101714.76;108562;1266;124051;-88
2023/08/22 09:12:24;;;;;;;;;;;;;;;25.46;48.56;101712.95;108607;1264;74615;-88
2023/08/22 09:14:50;;;;;;;;;;;;;;;25.46;48.73;101712.94;108527;1264;124509;-88
2023/08/22 09:17:17;;;;;;;;;;;;;;;25.52;48.93;101713.36;108746;1266;59097;-88
2023/08/22 09:19:43;;;;;;;;;;;;;;;25.59;48.83;101711.40;108738;1264;58902;-88
2023/08/22 09:22:14;;;;;;;;;;;;;;;25.69;48.83;101712.80;108518;1263;124922;-80
2023/08/22 09:24:49;;;;;;;;;;;;;;;25.77;48.49;101722.70;108684;1264;73695;-81
2023/08/22 09:27:16;;;;;;;;;;;;;;;25.84;48.47;101723.80;108587;1267;124784;-81
2023/08/22 09:29:42;;;;;;;;;;;;;;;25.90;48.43;101717.89;108727;1263;72487;-87
2023/08/22 09:32:09;;;;;;;;;;;;;;;25.87;48.18;101718.48;108589;1264;124348;-88
2023/08/22 09:34:35;;;;;;;;;;;;;;;25.81;48.05;101718.82;108798;1264;60492;-88
2023/08/22 09:37:02;;;;;;;;;;;;;;;25.77;47.89;101709.36;108757;1264;74671;-88
2023/08/22 09:39:33;;;;;;;;;;;;;;;25.71;47.79;101709.33;108602;1263;123164;-88
2023/08/22 09:42:00;;;;;;;;;;;;;;;25.64;47.67;101713.45;108726;1264;71657;-88
2023/08/22 09:44:27;;;;;;;;;;;;;;;25.57;47.45;101710.02;108535;1264;124385;-88
2023/08/22 09:46:55;;;;;;;;;;;;;;;25.46;47.38;101708.98;108727;1263;60264;-88
2023/08/22 09:49:21;;;;;;;;;;;;;;;25.32;47.04;101708.03;108655;1263;74118;-88
2023/08/22 09:51:49;;;;;;;;;;;;;;;25.09;47.07;101709.55;108660;1264;125338;-87
2023/08/22 09:54:15;;;;;;;;;;;;;;;24.87;47.46;101708.90;108750;1264;71449;-88
2023/08/22 09:56:42;;;;;;;;;;;;;;;24.66;47.91;101707.34;108613;1264;124544;-88
2023/08/22 09:59:08;;;;;;;;;;;;;;;24.51;48.24;101697.90;108783;1264;59013;-88
2023/08/22 10:01:36;;;;;;;;;;;;;;;24.35;48.43;101689.37;108667;1264;59410;-87
2023/08/22 10:04:03;;;;;;;;;;;;;;;24.25;48.55;101687.73;108667;1264;124057;-88
2023/08/22 10:06:31;;;;;;;;;;;;;;;24.20;48.85;101691.05;108669;1263;71374;-88
2023/08/22 10:08:57;;;;;;;;;;;;;;;24.14;49.00;101688.64;108487;1263;124082;-89
2023/08/22 10:11:25;;;;;;;;;;;;;;;24.02;48.84;101682.56;108771;1264;60260;-88
2023/08/22 10:13:51;;;;;;;;;;;;;;;23.91;49.10;101675.74;108612;1263;74392;-89
2023/08/22 10:16:18;;;;;;;;;;;;;;;23.92;49.12;101676.09;108567;1267;124189;-89
2023/08/22 10:18:44;;;;;;;;;;;;;;;24.01;48.35;101678.98;108668;1264;72557;-89
2023/08/22 10:21:11;;;;;;;;;;;;;;;24.11;48.01;101677.02;108531;1263;124381;-88
2023/08/22 10:23:53;;;;;;;;;;;;;;;24.18;47.46;101673.15;108710;1264;59084;-88
2023/08/22 10:26:20;;;;;;;;;;;;;;;24.36;47.88;101670.14;108598;1263;123220;-88
2023/08/22 10:29:09;;;;;;;;;;;;;;;24.51;47.53;101681.20;108658;1263;66026;-88
2023/08/22 10:31:55;;;;;;;;;;;;;;;24.59;47.19;101681.27;108686;1263;72453;-88
2023/08/22 10:34:21;;;;;;;;;;;;;;;24.57;46.72;101665.31;108646;1264;124296;-89
2023/08/22 10:36:57;;;;;;;;;;;;;;;24.50;46.15;101663.63;108773;1264;58955;-90
2023/08/22 10:39:39;;;;;;;;;;;;;;;24.49;46.30;101661.13;108656;1263;123184;-89
2023/08/22 10:42:06;;;;;;;;;;;;;;;24.52;46.25;101666.13;108730;1264;66288;-89
2023/08/22 10:44:32;;;;;;;;;;;;;;;24.49;45.85;101668.48;108606;1264;124379;-89
2023/08/22 10:46:59;;;;;;;;;;;;;;;24.38;45.67;101665.09;108689;1264;58995;-87
2023/08/22 10:49:30;;;;;;;;;;;;;;;24.33;45.85;101666.08;108654;1264;59963;-88
2023/08/22 10:52:15;;;;;;;;;;;;;;;24.28;45.89;101665.64;108550;1264;122990;-88
2023/08/22 10:55:00;;;;;;;;;;;;;;;24.24;45.67;101664.61;108762;1263;65626;-88
2023/08/22 10:57:27;;;;;;;;;;;;;;;24.20;45.61;101665.23;108634;1264;124033;-89
2023/08/22 10:59:53;;;;;;;;;;;;;;;24.13;45.40;101665.53;108709;1264;59011;-88
2023/08/22 11:02:20;;;;;;;;;;;;;;;24.00;45.27;101665.39;108630;1263;124410;-88
2023/08/22 11:04:47;;;;;;;;;;;;;;;23.96;45.52;101663.29;108733;1264;74729;-89
2023/08/22 11:07:13;;;;;;;;;;;;;;;24.00;45.55;101657.13;108659;1263;65173;-87
2023/08/22 11:09:40;;;;;;;;;;;;;;;24.04;45.66;101658.66;108661;1263;124352;-88
2023/08/22 11:12:19;;;;;;;;;;;;;;;24.12;45.62;101654.77;108620;1263;58961;-89
2023/08/22 11:14:46;;;;;;;;;;;;;;;24.18;45.66;101656.30;108517;1264;125052;-89
2023/08/22 11:17:13;;;;;;;;;;;;;;;24.26;45.57;101656.88;108721;1264;74698;-88
2023/08/22 11:19:40;;;;;;;;;;;;;;;24.39;46.23;101656.29;108696;1263;65790;-89
2023/08/22 11:22:06;;;;;;;;;;;;;;;24.48;46.21;101653.63;108580;1263;124083;-89
2023/08/22 11:24:33;;;;;;;;;;;;;;;24.54;45.79;101648.70;108709;1263;59366;-88
2023/08/22 11:27:01;;;;;;;;;;;;;;;24.55;45.82;101642.74;108636;1263;124477;-89
2023/08/22 11:29:27;;;;;;;;;;;;;;;24.57;46.39;101643.23;108616;1264;75554;-88
2023/08/22 11:31:54;;;;;;;;;;;;;;;24.60;46.24;101650.02;108741;1263;59452;-87
2023/08/22 11:34:21;;;;;;;;;;;;;;;24.60;46.41;101649.10;108622;1264;124803;-88
2023/08/22 11:36:47;;;;;;;;;;;;;;;24.59;46.41;101646.25;108770;1263;59494;-87
2023/08/22 11:39:14;;;;;;;;;;;;;;;24.59;46.88;101650.40;108649;1263;123300;-89
2023/08/22 11:41:40;;;;;;;;;;;;;;;24.57;46.95;101652.40;108766;1263;73384;-88
2023/08/22 11:44:12;;;;;;;;;;;;;;;24.50;46.94;101650.54;108410;1264;179781;-87
2023/08/22 11:46:39;;;;;;;;;;;;;;;24.40;46.86;101644.78;108616;1264;72713;-88
2023/08/22 11:49:06;;;;;;;;;;;;;;;24.37;47.13;101643.23;108509;1263;59059;-88
2023/08/22 11:51:33;;;;;;;;;;;;;;;24.34;47.37;101646.34;108580;1264;124242;-88
2023/08/22 11:53:59;;;;;;;;;;;;;;;24.33;47.70;101647.23;108734;1263;73677;-89
2023/08/22 11:56:26;;;;;;;;;;;;;;;24.36;47.44;101642.00;108534;1264;124418;-89
2023/08/22 11:58:52;;;;;;;;;;;;;;;24.37;47.40;101640.54;108750;1263;71874;-89
2023/08/22 12:01:20;;;;;;;;;;;;;;;24.35;47.37;101641.65;108594;1264;59058;-89
2023/08/22 12:03:47;;;;;;;;;;;;;;;24.36;47.64;101641.27;108636;1264;124097;-89
2023/08/22 12:06:13;;;;;;;;;;;;;;;24.41;47.69;101639.73;108634;1264;73748;-83
2023/08/22 12:08:40;;;;;;;;;;;;;;;24.51;47.90;101642.63;108474;1264;124777;-88
2023/08/22 12:11:07;;;;;;;;;;;;;;;24.54;47.54;101636.66;108679;1264;59055;-85
2023/08/22 12:13:34;;;;;;;;;;;;;;;24.56;47.59;101634.83;108664;1263;59452;-86
2023/08/22 12:16:00;;;;;;;;;;;;;;;24.59;47.30;101635.48;108610;1263;124314;-86
2023/08/22 12:18:28;;;;;;;;;;;;;;;24.63;46.89;101627.88;108597;1264;73370;-87
2023/08/22 12:20:55;;;;;;;;;;;;;;;24.72;47.13;101628.80;108589;1263;124097;-86
2023/08/22 12:23:21;;;;;;;;;;;;;;;24.82;47.25;101630.02;108715;1264;71379;-86